sensor_id;sensor_type;location;lat;lon;timestamp;temperature;humidity
10121;DHT22;5100;45.176;5.714;2023-03-05T00:00:13;11.90;58.70
10121;DHT22;5100;45.176;5.714;2023-03-05T00:02:40;11.90;58.80
10121;DHT22;5100;45.176;5.714;2023-03-05T00:05:07;11.90;58.60
10121;DHT22;5100;45.176;5.714;2023-03-05T00:07:33;11.90;58.40
10121;DHT22;5100;45.176;5.714;2023-03-05T00:10:01;11.80;58.40
10121;DHT22;5100;45.176;5.714;2023-03-05T00:12:28;11.80;58.40
10121;DHT22;5100;45.176;5.714;2023-03-05T00:14:54;11.80;58.40
10121;DHT22;5100;45.176;5.714;2023-03-05T00:17:20;11.80;58.50
10121;DHT22;5100;45.176;5.714;2023-03-05T00:19:46;11.80;58.50
10121;DHT22;5100;45.176;5.714;2023-03-05T00:22:12;11.80;58.50
10121;DHT22;5100;45.176;5.714;2023-03-05T00:24:38;11.70;58.60
10121;DHT22;5100;45.176;5.714;2023-03-05T00:27:04;11.70;58.60
10121;DHT22;5100;45.176;5.714;2023-03-05T00:29:30;11.70;58.70
10121;DHT22;5100;45.176;5.714;2023-03-05T00:31:56;11.70;58.70
10121;DHT22;5100;45.176;5.714;2023-03-05T00:34:23;11.70;58.70
10121;DHT22;5100;45.176;5.714;2023-03-05T00:36:51;11.70;58.80
10121;DHT22;5100;45.176;5.714;2023-03-05T00:39:19;11.70;58.60
10121;DHT22;5100;45.176;5.714;2023-03-05T00:41:46;11.70;58.60
10121;DHT22;5100;45.176;5.714;2023-03-05T00:44:12;11.70;58.50
10121;DHT22;5100;45.176;5.714;2023-03-05T00:46:38;11.70;58.60
10121;DHT22;5100;45.176;5.714;2023-03-05T00:49:05;11.60;58.60
10121;DHT22;5100;45.176;5.714;2023-03-05T00:51:31;11.60;58.70
10121;DHT22;5100;45.176;5.714;2023-03-05T00:53:58;11.60;58.70
10121;DHT22;5100;45.176;5.714;2023-03-05T00:56:24;11.60;58.80
10121;DHT22;5100;45.176;5.714;2023-03-05T00:58:50;11.60;58.80
10121;DHT22;5100;45.176;5.714;2023-03-05T01:01:18;11.60;58.60
10121;DHT22;5100;45.176;5.714;2023-03-05T01:03:44;11.60;58.30
10121;DHT22;5100;45.176;5.714;2023-03-05T01:06:12;11.60;58.20
10121;DHT22;5100;45.176;5.714;2023-03-05T01:08:40;11.60;58.10
10121;DHT22;5100;45.176;5.714;2023-03-05T01:11:06;11.60;58.20
10121;DHT22;5100;45.176;5.714;2023-03-05T01:13:33;11.60;58.20
10121;DHT22;5100;45.176;5.714;2023-03-05T01:15:59;11.60;58.20
10121;DHT22;5100;45.176;5.714;2023-03-05T01:18:26;11.50;58.20
10121;DHT22;5100;45.176;5.714;2023-03-05T01:20:52;11.50;58.10
10121;DHT22;5100;45.176;5.714;2023-03-05T01:23:18;11.50;58.10
10121;DHT22;5100;45.176;5.714;2023-03-05T01:25:44;11.50;57.90
10121;DHT22;5100;45.176;5.714;2023-03-05T01:28:10;11.50;57.90
10121;DHT22;5100;45.176;5.714;2023-03-05T01:30:37;11.50;58.00
10121;DHT22;5100;45.176;5.714;2023-03-05T01:33:03;11.50;57.90
10121;DHT22;5100;45.176;5.714;2023-03-05T01:35:29;11.50;58.00
10121;DHT22;5100;45.176;5.714;2023-03-05T01:37:55;11.50;57.90
10121;DHT22;5100;45.176;5.714;2023-03-05T01:40:28;11.50;57.80
10121;DHT22;5100;45.176;5.714;2023-03-05T01:46:21;11.40;57.50
10121;DHT22;5100;45.176;5.714;2023-03-05T01:49:13;11.40;57.30
10121;DHT22;5100;45.176;5.714;2023-03-05T01:54:35;11.40;57.10
10121;DHT22;5100;45.176;5.714;2023-03-05T01:57:09;11.40;57.00
10121;DHT22;5100;45.176;5.714;2023-03-05T01:59:38;11.30;57.00
10121;DHT22;5100;45.176;5.714;2023-03-05T02:02:06;11.30;57.00
10121;DHT22;5100;45.176;5.714;2023-03-05T02:04:39;11.30;56.90
10121;DHT22;5100;45.176;5.714;2023-03-05T02:07:08;11.30;57.00
10121;DHT22;5100;45.176;5.714;2023-03-05T02:09:38;11.30;57.00
10121;DHT22;5100;45.176;5.714;2023-03-05T02:12:04;11.30;56.90
10121;DHT22;5100;45.176;5.714;2023-03-05T02:14:32;11.20;56.80
10121;DHT22;5100;45.176;5.714;2023-03-05T02:16:58;11.20;56.60
10121;DHT22;5100;45.176;5.714;2023-03-05T02:19:24;11.20;56.50
10121;DHT22;5100;45.176;5.714;2023-03-05T02:21:51;11.20;56.50
10121;DHT22;5100;45.176;5.714;2023-03-05T02:24:34;11.20;56.20
10121;DHT22;5100;45.176;5.714;2023-03-05T02:27:03;11.20;56.00
10121;DHT22;5100;45.176;5.714;2023-03-05T02:29:30;11.20;55.70
10121;DHT22;5100;45.176;5.714;2023-03-05T02:31:57;11.20;55.50
10121;DHT22;5100;45.176;5.714;2023-03-05T02:34:23;11.20;55.30
10121;DHT22;5100;45.176;5.714;2023-03-05T02:36:49;11.10;55.10
10121;DHT22;5100;45.176;5.714;2023-03-05T02:39:16;11.10;55.20
10121;DHT22;5100;45.176;5.714;2023-03-05T02:41:43;11.10;55.00
10121;DHT22;5100;45.176;5.714;2023-03-05T02:44:10;11.10;55.00
10121;DHT22;5100;45.176;5.714;2023-03-05T02:46:35;11.10;55.00
10121;DHT22;5100;45.176;5.714;2023-03-05T02:49:03;11.10;54.90
10121;DHT22;5100;45.176;5.714;2023-03-05T02:51:29;11.10;55.00
10121;DHT22;5100;45.176;5.714;2023-03-05T02:53:55;11.00;55.00
10121;DHT22;5100;45.176;5.714;2023-03-05T02:56:23;11.00;55.00
10121;DHT22;5100;45.176;5.714;2023-03-05T02:58:49;10.90;55.00
10121;DHT22;5100;45.176;5.714;2023-03-05T03:01:16;10.90;55.10
10121;DHT22;5100;45.176;5.714;2023-03-05T03:03:42;10.90;55.10
10121;DHT22;5100;45.176;5.714;2023-03-05T03:06:08;10.80;55.10
10121;DHT22;5100;45.176;5.714;2023-03-05T03:08:34;10.80;55.10
10121;DHT22;5100;45.176;5.714;2023-03-05T03:11:08;10.80;55.10
10121;DHT22;5100;45.176;5.714;2023-03-05T03:13:35;10.80;55.10
10121;DHT22;5100;45.176;5.714;2023-03-05T03:16:07;10.80;55.20
10121;DHT22;5100;45.176;5.714;2023-03-05T03:18:33;10.70;55.30
10121;DHT22;5100;45.176;5.714;2023-03-05T03:20:59;10.70;55.30
10121;DHT22;5100;45.176;5.714;2023-03-05T03:23:25;10.70;55.40
10121;DHT22;5100;45.176;5.714;2023-03-05T03:25:51;10.70;55.40
10121;DHT22;5100;45.176;5.714;2023-03-05T03:28:17;10.70;55.50
10121;DHT22;5100;45.176;5.714;2023-03-05T03:30:44;10.60;55.70
10121;DHT22;5100;45.176;5.714;2023-03-05T03:33:10;10.60;55.70
10121;DHT22;5100;45.176;5.714;2023-03-05T03:35:36;10.60;55.80
10121;DHT22;5100;45.176;5.714;2023-03-05T03:38:03;10.60;55.80
10121;DHT22;5100;45.176;5.714;2023-03-05T03:40:29;10.60;55.90
10121;DHT22;5100;45.176;5.714;2023-03-05T03:42:55;10.60;56.00
10121;DHT22;5100;45.176;5.714;2023-03-05T03:45:22;10.50;56.00
10121;DHT22;5100;45.176;5.714;2023-03-05T03:47:48;10.50;56.10
10121;DHT22;5100;45.176;5.714;2023-03-05T03:50:15;10.50;56.10
10121;DHT22;5100;45.176;5.714;2023-03-05T03:52:41;10.50;56.10
10121;DHT22;5100;45.176;5.714;2023-03-05T03:55:08;10.50;56.10
10121;DHT22;5100;45.176;5.714;2023-03-05T03:57:35;10.50;56.10
10121;DHT22;5100;45.176;5.714;2023-03-05T04:00:04;10.50;56.10
10121;DHT22;5100;45.176;5.714;2023-03-05T04:02:37;10.40;56.10
10121;DHT22;5100;45.176;5.714;2023-03-05T04:05:04;10.40;56.20
10121;DHT22;5100;45.176;5.714;2023-03-05T04:07:30;10.40;56.20
10121;DHT22;5100;45.176;5.714;2023-03-05T04:09:56;10.40;56.30
10121;DHT22;5100;45.176;5.714;2023-03-05T04:12:23;10.40;56.30
10121;DHT22;5100;45.176;5.714;2023-03-05T04:14:49;10.40;56.40
10121;DHT22;5100;45.176;5.714;2023-03-05T04:17:15;10.40;56.50
10121;DHT22;5100;45.176;5.714;2023-03-05T04:19:41;10.30;56.50
10121;DHT22;5100;45.176;5.714;2023-03-05T04:22:12;10.30;56.50
10121;DHT22;5100;45.176;5.714;2023-03-05T04:24:38;10.30;56.50
10121;DHT22;5100;45.176;5.714;2023-03-05T04:27:05;10.30;56.50
10121;DHT22;5100;45.176;5.714;2023-03-05T04:29:31;10.30;56.60
10121;DHT22;5100;45.176;5.714;2023-03-05T04:31:58;10.20;56.60
10121;DHT22;5100;45.176;5.714;2023-03-05T04:34:24;10.20;56.60
10121;DHT22;5100;45.176;5.714;2023-03-05T04:36:50;10.20;56.70
10121;DHT22;5100;45.176;5.714;2023-03-05T04:39:16;10.20;56.70
10121;DHT22;5100;45.176;5.714;2023-03-05T04:41:42;10.20;56.80
10121;DHT22;5100;45.176;5.714;2023-03-05T04:44:08;10.20;56.90
10121;DHT22;5100;45.176;5.714;2023-03-05T04:46:34;10.20;56.80
10121;DHT22;5100;45.176;5.714;2023-03-05T04:49:01;10.20;56.90
10121;DHT22;5100;45.176;5.714;2023-03-05T04:51:26;10.10;56.90
10121;DHT22;5100;45.176;5.714;2023-03-05T04:53:52;10.10;57.00
10121;DHT22;5100;45.176;5.714;2023-03-05T04:56:19;10.10;57.00
10121;DHT22;5100;45.176;5.714;2023-03-05T04:58:45;10.10;57.00
10121;DHT22;5100;45.176;5.714;2023-03-05T05:01:12;10.10;57.00
10121;DHT22;5100;45.176;5.714;2023-03-05T05:03:39;10.10;57.00
10121;DHT22;5100;45.176;5.714;2023-03-05T05:06:05;10.10;57.00
10121;DHT22;5100;45.176;5.714;2023-03-05T05:08:31;10.10;57.00
10121;DHT22;5100;45.176;5.714;2023-03-05T05:11:06;10.10;57.00
10121;DHT22;5100;45.176;5.714;2023-03-05T05:13:33;10.00;56.90
10121;DHT22;5100;45.176;5.714;2023-03-05T05:16:00;10.00;57.00
10121;DHT22;5100;45.176;5.714;2023-03-05T05:18:26;10.00;57.10
10121;DHT22;5100;45.176;5.714;2023-03-05T05:20:52;10.00;57.10
10121;DHT22;5100;45.176;5.714;2023-03-05T05:23:18;10.00;57.30
10121;DHT22;5100;45.176;5.714;2023-03-05T05:25:44;10.00;57.40
10121;DHT22;5100;45.176;5.714;2023-03-05T05:28:11;10.00;57.40
10121;DHT22;5100;45.176;5.714;2023-03-05T05:30:38;10.00;57.40
10121;DHT22;5100;45.176;5.714;2023-03-05T05:33:04;10.00;57.40
10121;DHT22;5100;45.176;5.714;2023-03-05T05:35:30;10.00;57.30
10121;DHT22;5100;45.176;5.714;2023-03-05T05:37:56;10.00;57.30
10121;DHT22;5100;45.176;5.714;2023-03-05T05:40:22;10.00;57.30
10121;DHT22;5100;45.176;5.714;2023-03-05T05:42:48;10.00;57.20
10121;DHT22;5100;45.176;5.714;2023-03-05T05:45:14;10.00;57.20
10121;DHT22;5100;45.176;5.714;2023-03-05T05:47:40;10.00;57.10
10121;DHT22;5100;45.176;5.714;2023-03-05T05:50:07;10.00;57.10
10121;DHT22;5100;45.176;5.714;2023-03-05T05:52:33;10.00;57.00
10121;DHT22;5100;45.176;5.714;2023-03-05T05:54:59;9.90;57.00
10121;DHT22;5100;45.176;5.714;2023-03-05T05:57:25;9.90;57.00
10121;DHT22;5100;45.176;5.714;2023-03-05T05:59:51;9.90;57.00
10121;DHT22;5100;45.176;5.714;2023-03-05T06:02:17;9.90;57.10
10121;DHT22;5100;45.176;5.714;2023-03-05T06:04:44;9.90;57.10
10121;DHT22;5100;45.176;5.714;2023-03-05T06:07:10;9.90;57.20
10121;DHT22;5100;45.176;5.714;2023-03-05T06:09:36;9.90;57.20
10121;DHT22;5100;45.176;5.714;2023-03-05T06:12:03;9.90;57.30
10121;DHT22;5100;45.176;5.714;2023-03-05T06:14:29;9.90;57.30
10121;DHT22;5100;45.176;5.714;2023-03-05T06:16:55;9.90;57.40
10121;DHT22;5100;45.176;5.714;2023-03-05T06:19:21;9.90;57.40
10121;DHT22;5100;45.176;5.714;2023-03-05T06:21:47;9.90;57.40
10121;DHT22;5100;45.176;5.714;2023-03-05T06:24:13;9.80;57.50
10121;DHT22;5100;45.176;5.714;2023-03-05T06:26:40;9.80;57.60
10121;DHT22;5100;45.176;5.714;2023-03-05T06:29:06;9.80;57.60
10121;DHT22;5100;45.176;5.714;2023-03-05T06:31:32;9.80;57.60
10121;DHT22;5100;45.176;5.714;2023-03-05T06:34:00;9.80;57.70
10121;DHT22;5100;45.176;5.714;2023-03-05T06:36:26;9.80;57.80
10121;DHT22;5100;45.176;5.714;2023-03-05T06:38:54;9.80;57.80
10121;DHT22;5100;45.176;5.714;2023-03-05T06:41:23;9.80;57.80
10121;DHT22;5100;45.176;5.714;2023-03-05T06:43:50;9.80;57.90
10121;DHT22;5100;45.176;5.714;2023-03-05T06:46:25;9.70;57.90
10121;DHT22;5100;45.176;5.714;2023-03-05T06:48:54;9.80;57.90
10121;DHT22;5100;45.176;5.714;2023-03-05T06:51:23;9.80;57.90
10121;DHT22;5100;45.176;5.714;2023-03-05T06:53:50;9.80;57.80
10121;DHT22;5100;45.176;5.714;2023-03-05T06:56:17;9.80;57.80
10121;DHT22;5100;45.176;5.714;2023-03-05T06:58:45;9.80;57.80
10121;DHT22;5100;45.176;5.714;2023-03-05T07:01:13;9.80;57.80
10121;DHT22;5100;45.176;5.714;2023-03-05T07:03:40;9.80;57.80
10121;DHT22;5100;45.176;5.714;2023-03-05T07:06:08;9.80;57.80
10121;DHT22;5100;45.176;5.714;2023-03-05T07:08:36;9.70;57.70
10121;DHT22;5100;45.176;5.714;2023-03-05T07:11:08;9.80;57.70
10121;DHT22;5100;45.176;5.714;2023-03-05T07:13:34;9.70;57.70
10121;DHT22;5100;45.176;5.714;2023-03-05T07:16:07;9.70;57.70
10121;DHT22;5100;45.176;5.714;2023-03-05T07:18:34;9.70;57.80
10121;DHT22;5100;45.176;5.714;2023-03-05T07:21:02;9.80;57.80
10121;DHT22;5100;45.176;5.714;2023-03-05T07:23:28;9.80;57.80
10121;DHT22;5100;45.176;5.714;2023-03-05T07:25:54;9.80;57.70
10121;DHT22;5100;45.176;5.714;2023-03-05T07:28:20;9.80;57.60
10121;DHT22;5100;45.176;5.714;2023-03-05T07:30:56;9.80;57.40
10121;DHT22;5100;45.176;5.714;2023-03-05T07:33:23;9.90;57.40
10121;DHT22;5100;45.176;5.714;2023-03-05T07:35:49;9.90;57.30
10121;DHT22;5100;45.176;5.714;2023-03-05T07:38:15;9.90;57.30
10121;DHT22;5100;45.176;5.714;2023-03-05T07:40:42;9.90;57.30
10121;DHT22;5100;45.176;5.714;2023-03-05T07:43:08;10.00;57.30
10121;DHT22;5100;45.176;5.714;2023-03-05T07:45:38;10.00;57.30
10121;DHT22;5100;45.176;5.714;2023-03-05T07:48:06;10.00;57.40
10121;DHT22;5100;45.176;5.714;2023-03-05T07:50:32;10.00;57.40
10121;DHT22;5100;45.176;5.714;2023-03-05T07:52:58;10.00;57.30
10121;DHT22;5100;45.176;5.714;2023-03-05T07:55:24;10.00;57.30
10121;DHT22;5100;45.176;5.714;2023-03-05T07:57:51;10.00;57.30
10121;DHT22;5100;45.176;5.714;2023-03-05T08:00:18;10.10;57.20
10121;DHT22;5100;45.176;5.714;2023-03-05T08:02:44;10.10;57.30
10121;DHT22;5100;45.176;5.714;2023-03-05T08:05:10;10.10;57.30
10121;DHT22;5100;45.176;5.714;2023-03-05T08:07:36;10.10;57.40
10121;DHT22;5100;45.176;5.714;2023-03-05T08:10:03;10.10;57.40
10121;DHT22;5100;45.176;5.714;2023-03-05T08:12:29;10.20;57.50
10121;DHT22;5100;45.176;5.714;2023-03-05T08:14:55;10.20;57.40
10121;DHT22;5100;45.176;5.714;2023-03-05T08:17:21;10.20;57.30
10121;DHT22;5100;45.176;5.714;2023-03-05T08:19:47;10.30;57.10
10121;DHT22;5100;45.176;5.714;2023-03-05T08:22:14;10.30;57.00
10121;DHT22;5100;45.176;5.714;2023-03-05T08:24:42;10.40;57.00
10121;DHT22;5100;45.176;5.714;2023-03-05T08:27:08;10.40;57.10
10121;DHT22;5100;45.176;5.714;2023-03-05T08:29:34;10.40;57.10
10121;DHT22;5100;45.176;5.714;2023-03-05T08:32:00;10.50;57.10
10121;DHT22;5100;45.176;5.714;2023-03-05T08:34:27;10.50;57.10
10121;DHT22;5100;45.176;5.714;2023-03-05T08:36:52;10.60;57.10
10121;DHT22;5100;45.176;5.714;2023-03-05T08:39:19;10.60;57.10
10121;DHT22;5100;45.176;5.714;2023-03-05T08:41:45;10.60;57.00
10121;DHT22;5100;45.176;5.714;2023-03-05T08:44:11;10.70;57.10
10121;DHT22;5100;45.176;5.714;2023-03-05T08:46:40;10.70;57.10
10121;DHT22;5100;45.176;5.714;2023-03-05T08:49:06;10.80;57.10
10121;DHT22;5100;45.176;5.714;2023-03-05T08:51:33;10.80;57.10
10121;DHT22;5100;45.176;5.714;2023-03-05T08:54:00;10.80;57.10
10121;DHT22;5100;45.176;5.714;2023-03-05T08:56:28;10.90;57.30
10121;DHT22;5100;45.176;5.714;2023-03-05T08:58:56;10.90;57.20
10121;DHT22;5100;45.176;5.714;2023-03-05T09:01:22;11.00;57.20
10121;DHT22;5100;45.176;5.714;2023-03-05T09:03:49;11.00;57.30
10121;DHT22;5100;45.176;5.714;2023-03-05T09:06:15;11.10;57.10
10121;DHT22;5100;45.176;5.714;2023-03-05T09:08:41;11.10;57.20
10121;DHT22;5100;45.176;5.714;2023-03-05T09:11:08;11.20;57.20
10121;DHT22;5100;45.176;5.714;2023-03-05T09:13:35;11.20;57.20
10121;DHT22;5100;45.176;5.714;2023-03-05T09:16:05;11.20;57.20
10121;DHT22;5100;45.176;5.714;2023-03-05T09:18:32;11.30;57.20
10121;DHT22;5100;45.176;5.714;2023-03-05T09:20:59;11.30;57.10
10121;DHT22;5100;45.176;5.714;2023-03-05T09:23:28;11.40;57.20
10121;DHT22;5100;45.176;5.714;2023-03-05T09:25:54;11.40;57.10
10121;DHT22;5100;45.176;5.714;2023-03-05T09:28:20;11.50;57.10
10121;DHT22;5100;45.176;5.714;2023-03-05T09:30:47;11.50;57.20
10121;DHT22;5100;45.176;5.714;2023-03-05T09:33:13;11.60;57.20
10121;DHT22;5100;45.176;5.714;2023-03-05T09:35:39;11.60;57.00
10121;DHT22;5100;45.176;5.714;2023-03-05T09:38:06;11.70;56.90
10121;DHT22;5100;45.176;5.714;2023-03-05T09:46:28;11.80;56.90
10121;DHT22;5100;45.176;5.714;2023-03-05T09:49:22;11.90;56.70
10121;DHT22;5100;45.176;5.714;2023-03-05T09:51:59;11.90;56.80
10121;DHT22;5100;45.176;5.714;2023-03-05T09:54:34;11.90;56.80
10121;DHT22;5100;45.176;5.714;2023-03-05T09:57:02;12.00;56.80
10121;DHT22;5100;45.176;5.714;2023-03-05T09:59:36;12.00;56.20
10121;DHT22;5100;45.176;5.714;2023-03-05T10:02:19;12.10;56.10
10121;DHT22;5100;45.176;5.714;2023-03-05T10:07:38;12.10;55.60
10121;DHT22;5100;45.176;5.714;2023-03-05T10:10:17;12.10;55.40
10121;DHT22;5100;45.176;5.714;2023-03-05T10:12:56;12.20;55.40
10121;DHT22;5100;45.176;5.714;2023-03-05T10:15:41;12.20;55.40
10121;DHT22;5100;45.176;5.714;2023-03-05T10:18:30;12.20;55.30
10121;DHT22;5100;45.176;5.714;2023-03-05T10:21:09;12.20;55.30
10121;DHT22;5100;45.176;5.714;2023-03-05T10:23:48;12.10;55.30
10121;DHT22;5100;45.176;5.714;2023-03-05T10:29:24;12.10;55.20
10121;DHT22;5100;45.176;5.714;2023-03-05T10:45:35;11.90;55.80
10121;DHT22;5100;45.176;5.714;2023-03-05T10:50:45;11.80;56.10
10121;DHT22;5100;45.176;5.714;2023-03-05T10:53:34;11.80;56.20
10121;DHT22;5100;45.176;5.714;2023-03-05T10:56:05;11.80;56.20
10121;DHT22;5100;45.176;5.714;2023-03-05T10:58:32;11.80;56.30
10121;DHT22;5100;45.176;5.714;2023-03-05T11:01:01;11.80;56.50
10121;DHT22;5100;45.176;5.714;2023-03-05T11:04:04;11.80;56.50
10121;DHT22;5100;45.176;5.714;2023-03-05T11:06:38;11.70;56.40
10121;DHT22;5100;45.176;5.714;2023-03-05T11:09:16;11.70;56.50
10121;DHT22;5100;45.176;5.714;2023-03-05T11:11:44;11.80;56.70
10121;DHT22;5100;45.176;5.714;2023-03-05T11:14:27;11.70;56.70
10121;DHT22;5100;45.176;5.714;2023-03-05T11:17:10;11.80;56.60
10121;DHT22;5100;45.176;5.714;2023-03-05T11:19:48;11.80;56.70
10121;DHT22;5100;45.176;5.714;2023-03-05T11:22:16;11.80;56.70
10121;DHT22;5100;45.176;5.714;2023-03-05T11:24:44;11.80;56.70
10121;DHT22;5100;45.176;5.714;2023-03-05T11:27:25;11.80;56.70
10121;DHT22;5100;45.176;5.714;2023-03-05T11:29:55;11.90;56.70
10121;DHT22;5100;45.176;5.714;2023-03-05T11:32:25;11.90;56.70
10121;DHT22;5100;45.176;5.714;2023-03-05T11:34:54;11.90;56.60
10121;DHT22;5100;45.176;5.714;2023-03-05T11:37:30;11.90;56.50
10121;DHT22;5100;45.176;5.714;2023-03-05T11:42:42;11.90;56.50
10121;DHT22;5100;45.176;5.714;2023-03-05T11:45:17;11.90;56.60
10121;DHT22;5100;45.176;5.714;2023-03-05T11:47:55;11.90;56.60
10121;DHT22;5100;45.176;5.714;2023-03-05T11:50:31;12.00;56.50
10121;DHT22;5100;45.176;5.714;2023-03-05T12:00:33;12.00;56.00
10121;DHT22;5100;45.176;5.714;2023-03-05T12:03:04;12.00;56.00
10121;DHT22;5100;45.176;5.714;2023-03-05T12:05:36;12.00;56.10
10121;DHT22;5100;45.176;5.714;2023-03-05T12:08:10;12.00;56.00
10121;DHT22;5100;45.176;5.714;2023-03-05T12:10:38;12.00;56.00
10121;DHT22;5100;45.176;5.714;2023-03-05T12:23:56;12.00;56.10
10121;DHT22;5100;45.176;5.714;2023-03-05T12:35:28;12.10;56.20
10121;DHT22;5100;45.176;5.714;2023-03-05T12:40:34;12.10;56.20
10121;DHT22;5100;45.176;5.714;2023-03-05T12:43:32;12.10;56.10
10121;DHT22;5100;45.176;5.714;2023-03-05T12:46:22;12.20;56.10
10121;DHT22;5100;45.176;5.714;2023-03-05T12:48:48;12.20;56.10
10121;DHT22;5100;45.176;5.714;2023-03-05T12:51:31;12.20;56.00
10121;DHT22;5100;45.176;5.714;2023-03-05T12:54:22;12.20;56.00
10121;DHT22;5100;45.176;5.714;2023-03-05T12:56:51;12.30;56.00
10121;DHT22;5100;45.176;5.714;2023-03-05T12:59:20;12.30;56.00
10121;DHT22;5100;45.176;5.714;2023-03-05T13:01:56;12.30;56.10
10121;DHT22;5100;45.176;5.714;2023-03-05T13:04:30;12.30;56.00
10121;DHT22;5100;45.176;5.714;2023-03-05T13:06:59;12.30;56.00
10121;DHT22;5100;45.176;5.714;2023-03-05T13:09:28;12.30;56.00
10121;DHT22;5100;45.176;5.714;2023-03-05T13:11:56;12.30;56.10
10121;DHT22;5100;45.176;5.714;2023-03-05T13:14:34;12.30;56.10
10121;DHT22;5100;45.176;5.714;2023-03-05T13:17:02;12.30;56.00
10121;DHT22;5100;45.176;5.714;2023-03-05T13:19:48;12.40;56.00
10121;DHT22;5100;45.176;5.714;2023-03-05T13:22:14;12.40;56.10
10121;DHT22;5100;45.176;5.714;2023-03-05T13:24:40;12.40;56.20
10121;DHT22;5100;45.176;5.714;2023-03-05T13:27:29;12.40;56.10
10121;DHT22;5100;45.176;5.714;2023-03-05T13:29:56;12.40;56.10
10121;DHT22;5100;45.176;5.714;2023-03-05T13:32:27;12.40;56.10
10121;DHT22;5100;45.176;5.714;2023-03-05T13:34:58;12.40;56.00
10121;DHT22;5100;45.176;5.714;2023-03-05T13:37:26;12.40;56.00
10121;DHT22;5100;45.176;5.714;2023-03-05T13:39:58;12.40;55.80
10121;DHT22;5100;45.176;5.714;2023-03-05T13:42:27;12.50;56.00
10121;DHT22;5100;45.176;5.714;2023-03-05T13:44:56;12.50;55.70
10121;DHT22;5100;45.176;5.714;2023-03-05T13:47:25;12.50;55.50
10121;DHT22;5100;45.176;5.714;2023-03-05T13:49:58;12.50;55.50
10121;DHT22;5100;45.176;5.714;2023-03-05T13:52:36;12.50;55.50
10121;DHT22;5100;45.176;5.714;2023-03-05T13:55:13;12.50;55.60
10121;DHT22;5100;45.176;5.714;2023-03-05T13:57:43;12.50;55.70
10121;DHT22;5100;45.176;5.714;2023-03-05T14:00:33;12.50;55.80
10121;DHT22;5100;45.176;5.714;2023-03-05T14:03:19;12.50;56.00
10121;DHT22;5100;45.176;5.714;2023-03-05T14:05:46;12.60;55.80
10121;DHT22;5100;45.176;5.714;2023-03-05T14:08:21;12.60;55.60
10121;DHT22;5100;45.176;5.714;2023-03-05T14:10:49;12.60;55.70
10121;DHT22;5100;45.176;5.714;2023-03-05T14:13:24;12.60;55.70
10121;DHT22;5100;45.176;5.714;2023-03-05T14:18:29;12.60;55.70
10121;DHT22;5100;45.176;5.714;2023-03-05T14:21:10;12.60;55.80
10121;DHT22;5100;45.176;5.714;2023-03-05T14:26:22;12.60;55.70
10121;DHT22;5100;45.176;5.714;2023-03-05T14:31:26;12.70;55.70
10121;DHT22;5100;45.176;5.714;2023-03-05T14:33:53;12.70;55.70
10121;DHT22;5100;45.176;5.714;2023-03-05T14:36:25;12.70;55.70
10121;DHT22;5100;45.176;5.714;2023-03-05T14:38:54;12.70;55.60
10121;DHT22;5100;45.176;5.714;2023-03-05T14:41:37;12.70;55.60
10121;DHT22;5100;45.176;5.714;2023-03-05T14:44:12;12.70;55.60
10121;DHT22;5100;45.176;5.714;2023-03-05T14:46:38;12.70;55.50
10121;DHT22;5100;45.176;5.714;2023-03-05T14:49:05;12.70;55.40
10121;DHT22;5100;45.176;5.714;2023-03-05T14:51:36;12.70;55.40
10121;DHT22;5100;45.176;5.714;2023-03-05T14:54:03;12.70;55.50
10121;DHT22;5100;45.176;5.714;2023-03-05T14:56:29;12.70;55.30
10121;DHT22;5100;45.176;5.714;2023-03-05T14:58:55;12.70;55.40
10121;DHT22;5100;45.176;5.714;2023-03-05T15:01:22;12.70;55.30
10121;DHT22;5100;45.176;5.714;2023-03-05T15:03:50;12.70;55.30
10121;DHT22;5100;45.176;5.714;2023-03-05T15:06:32;12.70;55.40
10121;DHT22;5100;45.176;5.714;2023-03-05T15:09:00;12.70;55.40
10121;DHT22;5100;45.176;5.714;2023-03-05T15:11:26;12.70;55.20
10121;DHT22;5100;45.176;5.714;2023-03-05T15:13:52;12.70;55.10
10121;DHT22;5100;45.176;5.714;2023-03-05T15:16:18;12.70;55.10
10121;DHT22;5100;45.176;5.714;2023-03-05T15:18:45;12.70;55.00
10121;DHT22;5100;45.176;5.714;2023-03-05T15:21:11;12.70;55.10
10121;DHT22;5100;45.176;5.714;2023-03-05T15:23:37;12.70;55.00
10121;DHT22;5100;45.176;5.714;2023-03-05T15:26:05;12.70;54.90
10121;DHT22;5100;45.176;5.714;2023-03-05T15:28:36;12.70;54.90
10121;DHT22;5100;45.176;5.714;2023-03-05T15:31:03;12.70;54.70
10121;DHT22;5100;45.176;5.714;2023-03-05T15:33:30;12.70;54.80
10121;DHT22;5100;45.176;5.714;2023-03-05T15:35:56;12.70;54.70
10121;DHT22;5100;45.176;5.714;2023-03-05T15:38:23;12.70;54.70
10121;DHT22;5100;45.176;5.714;2023-03-05T15:40:50;12.70;54.60
10121;DHT22;5100;45.176;5.714;2023-03-05T15:43:17;12.70;54.60
10121;DHT22;5100;45.176;5.714;2023-03-05T15:45:44;12.70;54.60
10121;DHT22;5100;45.176;5.714;2023-03-05T15:48:10;12.70;54.50
10121;DHT22;5100;45.176;5.714;2023-03-05T15:50:39;12.70;54.60
10121;DHT22;5100;45.176;5.714;2023-03-05T15:53:07;12.70;54.60
10121;DHT22;5100;45.176;5.714;2023-03-05T15:55:40;12.70;54.60
10121;DHT22;5100;45.176;5.714;2023-03-05T15:58:07;12.70;54.50
10121;DHT22;5100;45.176;5.714;2023-03-05T16:00:34;12.70;54.50
10121;DHT22;5100;45.176;5.714;2023-03-05T16:03:02;12.70;54.60
10121;DHT22;5100;45.176;5.714;2023-03-05T16:05:28;12.70;54.70
10121;DHT22;5100;45.176;5.714;2023-03-05T16:07:55;12.70;54.70
10121;DHT22;5100;45.176;5.714;2023-03-05T16:10:23;12.70;54.70
10121;DHT22;5100;45.176;5.714;2023-03-05T16:12:56;12.60;54.60
10121;DHT22;5100;45.176;5.714;2023-03-05T16:15:24;12.60;54.70
10121;DHT22;5100;45.176;5.714;2023-03-05T16:17:53;12.60;54.70
10121;DHT22;5100;45.176;5.714;2023-03-05T16:20:20;12.60;54.70
10121;DHT22;5100;45.176;5.714;2023-03-05T16:22:47;12.60;54.80
10121;DHT22;5100;45.176;5.714;2023-03-05T16:25:14;12.60;54.80
10121;DHT22;5100;45.176;5.714;2023-03-05T16:27:40;12.50;54.90
10121;DHT22;5100;45.176;5.714;2023-03-05T16:30:07;12.50;54.90
10121;DHT22;5100;45.176;5.714;2023-03-05T16:32:33;12.50;54.90
10121;DHT22;5100;45.176;5.714;2023-03-05T16:34:59;12.50;54.90
10121;DHT22;5100;45.176;5.714;2023-03-05T16:37:25;12.50;55.00
10121;DHT22;5100;45.176;5.714;2023-03-05T16:39:51;12.50;55.00
10121;DHT22;5100;45.176;5.714;2023-03-05T16:42:17;12.50;54.90
10121;DHT22;5100;45.176;5.714;2023-03-05T16:44:44;12.50;55.00
10121;DHT22;5100;45.176;5.714;2023-03-05T16:47:11;12.40;55.10
10121;DHT22;5100;45.176;5.714;2023-03-05T16:49:37;12.40;55.40
10121;DHT22;5100;45.176;5.714;2023-03-05T16:52:06;12.40;55.40
10121;DHT22;5100;45.176;5.714;2023-03-05T16:54:32;12.40;55.60
10121;DHT22;5100;45.176;5.714;2023-03-05T16:56:59;12.40;55.70
10121;DHT22;5100;45.176;5.714;2023-03-05T16:59:26;12.30;55.80
10121;DHT22;5100;45.176;5.714;2023-03-05T17:01:52;12.30;55.80
10121;DHT22;5100;45.176;5.714;2023-03-05T17:04:18;12.30;55.80
10121;DHT22;5100;45.176;5.714;2023-03-05T17:06:46;12.30;55.80
10121;DHT22;5100;45.176;5.714;2023-03-05T17:09:14;12.30;55.80
10121;DHT22;5100;45.176;5.714;2023-03-05T17:11:40;12.20;55.80